Weather at Match Point Airport [CLOSED]

Public forecast

Using degrees Celsius for public forecast. Weather courtesy of forecast.io.

Closest aviation weather report (METAR) to Match Point Airport

Closest report is San Fernando Airport, 27.2 nm (50.4 km) E.

2024/05/30 19:00 (retrieved 37 minutes ago)

SADF 301900Z 34004KT 9999 FEW035 BKN044 17/09 Q1022

Closest aviation forecast (TAF) to Match Point Airport

Closest forecast is San Fernando Airport, 27.2 nm (50.4 km) E.

2024/05/30 18:03 (retrieved 2 hours ago)

TAF TAF SADF 301700Z 3018/3118 32005KT 9999 BKN045 TX17/3118Z TN10/3110Z BECMG 3020/3022 07005KT BECMG 3101/3103 CAVOK PROB30 TEMPO 3106/3112 5000 BR BKN010 BECMG 3113/3115 02010KT 9999 SCT040